עמוד ראשי
METAR-TAF:

METAR-TAF

שדות תעופה :

בטמן, טורקיה

קו רוחב: 37-52N, קו אורך: 041-10E, גובה: 540מטר

תצפית מזג אוויר נוכחית

הדו"ח נערך לפני 25דקות, בשעה 20:50 UTC
רוח 8קשר מכיוון צפון, משתנה בין צפון/צפון-מערב ו צפון-מזרח
טמפרטורת 26 צלסיוס
לחות 39%
לחץ 1004 hPa
ראות 10 קילומטר או יותר
ללא עננים שבסיסם נמוך מ 5000 רגל או קומולונימבוס

METAR: LTCJ 232050Z 01008KT 340V040 CAVOK 26/11 Q1004 NOSIG

זמן: 00:15 (21:15 UTC)

תחזית

הדו"ח נערך לפני 4 שעות ו 35דקות, בשעה 16:40 UTC
תחזית בתוקף מ 23 ב 18 UTC עד 24 ב 18 UTC
רוח 8קשר מכיוון מזרח/צפון-מזרח
ראות 10 קילומטר או יותר
עננים פזורים בגובה 4000רגל
עננים בינוניים בגובה 10000רגל
זמנית מ -
23 ב 18 UTC עד 23 ב 22 UTC
רוח 18קשר מכיוון מזרח/צפון-מזרח
יעשה מ
23 ב 20 UTC עד 23 ב 23 UTC
ראות 10 קילומטר או יותר
ללא עננים שבסיסם נמוך מ 5000 רגל או קומולונימבוס

TAF: LTCJ 231640Z 2318/2418 06008KT 9999 SCT040 BKN100 TEMPO 2318/2322 06018KT BECMG 2320/2323 CAVOK

תצפיות ותחזיות מזג אוויר לגבי יותר מ- 4,000 שדות תעופה ברחבי העולם. דוחות METAR ו- TAF.

התחנות הזמינות מסומנות בנקודות צהובות ואדומות על גבי המפה.

העבר את העכבר לנקודה הצבעונית על מנת לראות את שם התחנה.

לאחר מכן, לחץ כדי לראות את תוכן ואת תחזיות מזג האוויר.

כדי לשנות את המפה: לחץ על הכפתורים הירוקים עם הפלוס השחור כדי להתקרב; על הכפתור הירוק עם המקף כדי להתרחק; או בחיצים הירוקים למפות סמוכות.


METAR-TAF: